createdAt,value
2023-03-07T00:01:23.795Z,99281.40
2023-03-07T00:03:52.409Z,99281.96
2023-03-07T00:06:20.864Z,99278.35
2023-03-07T00:08:53.494Z,99279.20
2023-03-07T00:11:23.844Z,99272.39
2023-03-07T00:13:52.774Z,99276.38
2023-03-07T00:16:23.823Z,99272.36
2023-03-07T00:18:54.724Z,99267.88
2023-03-07T00:21:23.631Z,99264.84
2023-03-07T00:23:52.597Z,99259.48
2023-03-07T00:26:22.334Z,99254.20
2023-03-07T00:28:52.100Z,99253.67
2023-03-07T00:31:21.017Z,99250.44
2023-03-07T00:33:50.932Z,99246.93
2023-03-07T00:36:21.684Z,99251.02
2023-03-07T00:38:50.543Z,99250.98
2023-03-07T00:41:24.290Z,99245.33
2023-03-07T00:43:53.554Z,99247.27
2023-03-07T00:46:23.470Z,99245.09
2023-03-07T00:48:53.406Z,99242.69
2023-03-07T00:51:27.724Z,99239.77
2023-03-07T00:53:56.671Z,99235.85
2023-03-07T00:56:25.511Z,99232.70
2023-03-07T00:58:54.296Z,99227.65
2023-03-07T01:01:24.112Z,99222.98
2023-03-07T01:03:56.437Z,99217.91
2023-03-07T01:06:27.699Z,99214.34
2023-03-07T01:09:00.989Z,99208.48
2023-03-07T01:11:31.620Z,99202.79
2023-03-07T01:14:02.061Z,99194.09
2023-03-07T01:16:35.469Z,99187.55
2023-03-07T01:19:05.782Z,99185.23
2023-03-07T01:21:36.514Z,99175.57
2023-03-07T01:24:06.312Z,99172.77
2023-03-07T01:26:35.557Z,99165.73
2023-03-07T01:29:05.053Z,99164.92
2023-03-07T01:31:36.738Z,99160.57
2023-03-07T01:34:06.910Z,99153.48
2023-03-07T01:36:37.420Z,99148.31
2023-03-07T01:39:14.802Z,99146.30
2023-03-07T01:41:50.413Z,99135.35
2023-03-07T01:44:27.833Z,99135.45
2023-03-07T01:46:57.707Z,99126.46
2023-03-07T01:49:41.315Z,99120.56
2023-03-07T01:52:12.334Z,99115.40
2023-03-07T01:54:49.248Z,99103.53
2023-03-07T01:57:22.001Z,99086.89
2023-03-07T01:59:52.246Z,99075.83
2023-03-07T02:02:23.039Z,99065.84
2023-03-07T02:05:04.273Z,99057.42
2023-03-07T02:07:35.753Z,99046.60
2023-03-07T02:10:04.893Z,99043.67
2023-03-07T02:12:34.026Z,99035.77
2023-03-07T02:15:02.455Z,99031.82
2023-03-07T02:17:32.278Z,99021.05
2023-03-07T02:20:07.812Z,99018.88
2023-03-07T02:22:37.418Z,99020.11
2023-03-07T02:25:38.728Z,99016.88
2023-03-07T02:28:08.866Z,99007.10
2023-03-07T02:30:38.862Z,99000.02
2023-03-07T02:33:07.595Z,98988.75
2023-03-07T02:35:40.561Z,98990.06
2023-03-07T02:38:09.716Z,98977.56
2023-03-07T02:40:40.243Z,98964.91
2023-03-07T02:43:09.843Z,98961.36
2023-03-07T02:45:40.234Z,98954.33
2023-03-07T02:48:10.560Z,98938.91
2023-03-07T02:50:42.227Z,98939.62
2023-03-07T02:53:11.610Z,98923.46
2023-03-07T02:55:40.056Z,98912.61
2023-03-07T02:58:10.045Z,98894.60
2023-03-07T03:00:38.782Z,98879.23
2023-03-07T03:03:07.592Z,98883.63
2023-03-07T03:05:40.316Z,98892.55
2023-03-07T03:08:09.411Z,98893.59
2023-03-07T03:10:37.851Z,98922.41
2023-03-07T03:13:08.594Z,98925.80
2023-03-07T03:15:37.765Z,98918.73
2023-03-07T03:18:08.711Z,98913.20
2023-03-07T03:20:40.430Z,98898.87
2023-03-07T03:23:09.288Z,98891.14
2023-03-07T03:25:40.277Z,98887.48
2023-03-07T03:28:09.814Z,98881.53
2023-03-07T03:30:38.413Z,98873.13
2023-03-07T03:33:09.229Z,98872.26
2023-03-07T03:35:39.892Z,98870.90
2023-03-07T03:38:08.654Z,98872.30
2023-03-07T03:40:38.866Z,98873.41
2023-03-07T03:43:07.348Z,98869.14
2023-03-07T03:45:35.977Z,98868.25
2023-03-07T03:48:04.668Z,98913.48
2023-03-07T03:50:40.299Z,98920.96
2023-03-07T03:53:09.785Z,98925.83
2023-03-07T03:55:38.909Z,98929.06
2023-03-07T03:58:07.252Z,98924.61
2023-03-07T04:00:36.034Z,98921.10
2023-03-07T04:03:05.062Z,98918.39
2023-03-07T04:05:34.667Z,98910.11
2023-03-07T04:08:06.431Z,98906.55
2023-03-07T04:10:37.624Z,98910.48
2023-03-07T04:13:08.379Z,98897.90
2023-03-07T04:15:37.463Z,98876.80
2023-03-07T04:18:22.896Z,98854.58
2023-03-07T04:20:52.012Z,98840.91
2023-03-07T04:23:27.921Z,98825.17
2023-03-07T04:25:58.592Z,98820.33
2023-03-07T04:28:41.683Z,98800.92
2023-03-07T04:31:16.306Z,98794.48
2023-03-07T04:33:46.043Z,98776.66
2023-03-07T04:36:16.543Z,98764.40
2023-03-07T04:38:46.090Z,98750.59
2023-03-07T04:41:19.684Z,98739.98
2023-03-07T04:43:49.951Z,98706.33
2023-03-07T04:46:18.545Z,98692.18
2023-03-07T04:48:47.221Z,98687.92
2023-03-07T04:51:16.317Z,98679.84
2023-03-07T04:53:47.859Z,98671.70
2023-03-07T04:56:16.493Z,98660.02
2023-03-07T04:58:46.151Z,98663.45
2023-03-07T05:01:15.677Z,98665.21
2023-03-07T05:03:45.030Z,98658.21
2023-03-07T05:06:20.680Z,98649.00
2023-03-07T05:08:53.878Z,98642.84
2023-03-07T05:11:22.992Z,98637.30
2023-03-07T05:13:53.614Z,98633.16
2023-03-07T05:16:24.225Z,98623.48
2023-03-07T05:18:52.672Z,98612.11
2023-03-07T05:21:21.212Z,98603.66
2023-03-07T05:23:51.438Z,98593.63
2023-03-07T05:26:21.372Z,98584.20
2023-03-07T05:28:50.264Z,98577.83
2023-03-07T05:31:18.978Z,98570.77
2023-03-07T05:33:47.988Z,98565.15
2023-03-07T05:36:18.811Z,98554.20
2023-03-07T05:38:47.273Z,98541.18
2023-03-07T05:41:17.634Z,98527.64
2023-03-07T05:43:46.126Z,98519.45
2023-03-07T05:46:14.682Z,98515.11
2023-03-07T05:48:43.326Z,98505.84
2023-03-07T05:51:11.722Z,98498.95
2023-03-07T05:53:40.760Z,98488.08
2023-03-07T05:56:16.078Z,98475.84
2023-03-07T05:58:44.941Z,98455.89
2023-03-07T06:01:15.017Z,98444.02
2023-03-07T06:03:45.255Z,98432.12
2023-03-07T06:06:13.640Z,98424.77
2023-03-07T06:08:57.260Z,98421.30
2023-03-07T06:11:26.714Z,98405.24
2023-03-07T06:13:56.624Z,98400.05
2023-03-07T06:16:26.802Z,98391.79
2023-03-07T06:18:56.639Z,98387.43
2023-03-07T06:21:30.777Z,98382.39
2023-03-07T06:23:59.670Z,98381.48
2023-03-07T06:26:28.336Z,98388.42
2023-03-07T06:28:57.215Z,98392.71
2023-03-07T06:31:27.742Z,98397.41
2023-03-07T06:33:57.638Z,98406.41
2023-03-07T06:36:26.965Z,98414.44
2023-03-07T06:38:58.378Z,98414.27
2023-03-07T06:41:27.046Z,98420.95
2023-03-07T06:43:56.343Z,98426.73
2023-03-07T06:46:32.056Z,98439.80
2023-03-07T06:49:04.965Z,98443.56
2023-03-07T06:51:36.114Z,98444.92
2023-03-07T06:54:09.500Z,98452.88
2023-03-07T06:56:38.155Z,98457.63
2023-03-07T06:59:06.763Z,98474.36
2023-03-07T07:01:36.047Z,98485.81
2023-03-07T07:04:04.805Z,98493.48
2023-03-07T07:06:38.312Z,98507.14
2023-03-07T07:09:06.830Z,98522.30
2023-03-07T07:11:38.980Z,98533.27
2023-03-07T07:14:11.434Z,98541.64
2023-03-07T07:16:40.478Z,98550.42
2023-03-07T07:19:10.283Z,98553.97
2023-03-07T07:21:38.770Z,98552.40
2023-03-07T07:24:07.559Z,98559.13
2023-03-07T07:26:40.271Z,98564.27
2023-03-07T07:29:09.639Z,98565.60
2023-03-07T07:31:38.894Z,98564.33
2023-03-07T07:34:07.601Z,98574.50
2023-03-07T07:36:36.259Z,98574.63
2023-03-07T07:39:06.399Z,98580.16
2023-03-07T07:41:36.233Z,98583.70
2023-03-07T07:44:04.952Z,98582.44
2023-03-07T07:46:41.284Z,98586.06
2023-03-07T07:49:10.150Z,98585.64
2023-03-07T07:51:41.057Z,98580.48
2023-03-07T07:54:09.700Z,98572.41
2023-03-07T07:56:38.551Z,98574.21
2023-03-07T07:59:07.137Z,98569.64
2023-03-07T08:01:36.077Z,98568.48
2023-03-07T08:04:04.685Z,98559.92
2023-03-07T08:06:34.229Z,98550.54
2023-03-07T08:09:03.573Z,98551.73
2023-03-07T08:11:34.993Z,98552.10
2023-03-07T08:14:04.128Z,98546.26
2023-03-07T08:16:32.645Z,98551.73
2023-03-07T08:19:01.382Z,98555.04
2023-03-07T08:21:29.921Z,98559.25
2023-03-07T08:23:58.521Z,98565.62
2023-03-07T08:26:26.993Z,98569.32
2023-03-07T08:28:55.370Z,98568.75
2023-03-07T08:31:24.318Z,98571.80
2023-03-07T08:33:56.841Z,98581.44
2023-03-07T08:36:25.609Z,98583.73
2023-03-07T08:38:59.695Z,98589.59
2023-03-07T08:41:29.263Z,98596.52
2023-03-07T08:43:57.890Z,98598.50
2023-03-07T08:46:34.030Z,98606.46
2023-03-07T08:49:04.035Z,98615.39
2023-03-07T08:51:36.250Z,98620.83
2023-03-07T08:54:05.133Z,98623.29
2023-03-07T08:56:34.565Z,98624.80
2023-03-07T08:59:03.048Z,98632.74
2023-03-07T09:01:31.554Z,98635.59
2023-03-07T09:04:03.373Z,98630.61
2023-03-07T09:06:31.900Z,98631.55
2023-03-07T09:09:00.284Z,98639.61
2023-03-07T09:11:30.873Z,98641.45
2023-03-07T09:14:07.337Z,98647.17
2023-03-07T09:16:51.621Z,98651.54
2023-03-07T09:19:22.757Z,98656.08
2023-03-07T09:21:52.309Z,98662.09
2023-03-07T09:24:22.164Z,98671.52
2023-03-07T09:26:53.852Z,98675.38
2023-03-07T09:29:25.139Z,98674.83
2023-03-07T09:31:55.431Z,98677.66
2023-03-07T09:34:25.898Z,98685.48
2023-03-07T09:37:01.821Z,98690.08
2023-03-07T09:39:32.562Z,98693.98
2023-03-07T09:42:18.020Z,98704.75
2023-03-07T09:44:52.739Z,98706.82
2023-03-07T09:47:59.826Z,98712.55
2023-03-07T09:50:39.579Z,98719.08
2023-03-07T09:53:13.217Z,98729.04
2023-03-07T09:55:41.865Z,98744.69
2023-03-07T09:58:16.161Z,98770.42
2023-03-07T10:00:46.345Z,98797.36
2023-03-07T10:03:26.013Z,98842.20
2023-03-07T10:05:56.585Z,98879.21
2023-03-07T10:08:28.993Z,98894.09
2023-03-07T10:11:26.632Z,98910.73
2023-03-07T10:14:15.997Z,98914.09
2023-03-07T10:16:53.658Z,98920.45
2023-03-07T10:19:51.166Z,98937.80
2023-03-07T10:22:32.317Z,98966.85
2023-03-07T10:25:25.089Z,98979.46
2023-03-07T10:27:56.096Z,98966.02
2023-03-07T10:30:24.679Z,98954.29
2023-03-07T10:32:58.835Z,98967.66
2023-03-07T10:35:41.130Z,98975.38
2023-03-07T10:38:38.252Z,98992.95
2023-03-07T10:41:17.620Z,98998.03
2023-03-07T10:43:46.898Z,99000.08
2023-03-07T10:46:25.692Z,98986.67
2023-03-07T10:49:10.445Z,98984.02
2023-03-07T10:51:54.925Z,98983.70
2023-03-07T10:54:30.261Z,98977.68
2023-03-07T10:57:16.590Z,98964.55
2023-03-07T10:59:50.263Z,98950.91
2023-03-07T11:02:44.959Z,98934.10
2023-03-07T11:05:41.202Z,98931.37
2023-03-07T11:08:42.866Z,98939.45
2023-03-07T11:11:22.191Z,98956.33
2023-03-07T11:14:05.899Z,98967.58
2023-03-07T11:16:42.782Z,98962.08
2023-03-07T11:19:45.702Z,98945.54
2023-03-07T11:22:24.972Z,98949.23
2023-03-07T11:25:02.074Z,98949.33
2023-03-07T11:27:54.004Z,98943.46
2023-03-07T11:31:01.052Z,98930.48
2023-03-07T11:33:44.326Z,98925.19
2023-03-07T11:36:22.728Z,98935.71
2023-03-07T11:38:54.332Z,98942.87
2023-03-07T11:41:30.136Z,98939.89
2023-03-07T11:44:23.506Z,98955.00
2023-03-07T11:47:14.670Z,98945.52
2023-03-07T11:49:45.898Z,98944.63
2023-03-07T11:52:53.237Z,98944.71
2023-03-07T11:56:07.536Z,98952.17
2023-03-07T11:58:36.208Z,98945.92
2023-03-07T12:01:21.528Z,98932.14
2023-03-07T12:03:57.113Z,98941.23
2023-03-07T12:06:41.234Z,98935.04
2023-03-07T12:09:23.413Z,98945.66
2023-03-07T12:12:08.440Z,98944.23
2023-03-07T12:15:16.847Z,98947.58
2023-03-07T12:18:19.273Z,98955.59
2023-03-07T12:21:03.368Z,98953.33
2023-03-07T12:24:00.871Z,98946.98
2023-03-07T12:26:47.825Z,98945.14
2023-03-07T12:29:49.390Z,98948.39
2023-03-07T12:32:25.708Z,98947.48
2023-03-07T12:34:59.874Z,98954.42
2023-03-07T12:37:47.120Z,98952.14
2023-03-07T12:40:19.135Z,98955.60
2023-03-07T12:42:56.510Z,98950.23
2023-03-07T12:45:33.267Z,98950.59
2023-03-07T12:48:08.385Z,98949.83
2023-03-07T12:50:41.792Z,98961.89
2023-03-07T12:53:24.478Z,98977.45
2023-03-07T12:56:26.932Z,98979.36
2023-03-07T12:59:03.986Z,98990.00
2023-03-07T13:01:42.306Z,98994.45
2023-03-07T13:04:28.816Z,98999.39
2023-03-07T13:07:02.447Z,99008.55
2023-03-07T13:09:33.866Z,99004.30
2023-03-07T13:12:22.764Z,99007.28
2023-03-07T13:15:00.548Z,99007.61
2023-03-07T13:17:33.649Z,99014.73
2023-03-07T13:20:26.094Z,99016.30
2023-03-07T13:22:55.711Z,99015.48
2023-03-07T13:25:27.838Z,99020.75
2023-03-07T13:27:57.691Z,99023.17
2023-03-07T13:30:34.799Z,99022.55
2023-03-07T13:33:27.983Z,99027.96
2023-03-07T13:35:58.775Z,99030.05
2023-03-07T13:38:53.979Z,99031.19
2023-03-07T13:41:45.655Z,99038.06
2023-03-07T13:44:46.390Z,99033.13
2023-03-07T13:47:43.732Z,99038.79
2023-03-07T13:50:35.968Z,99037.81
2023-03-07T13:53:23.685Z,99043.08
2023-03-07T13:56:10.628Z,99046.70
2023-03-07T13:59:04.350Z,99058.37
2023-03-07T14:01:34.605Z,99064.27
2023-03-07T14:04:13.147Z,99068.84
2023-03-07T14:06:47.580Z,99070.29
2023-03-07T14:09:21.580Z,99068.98
2023-03-07T14:12:27.976Z,99068.25
2023-03-07T14:15:03.361Z,99070.05
2023-03-07T14:17:54.048Z,99068.09
2023-03-07T14:20:23.548Z,99069.31
2023-03-07T14:22:59.305Z,99067.68
2023-03-07T14:25:32.963Z,99067.33
2023-03-07T14:28:06.178Z,99061.68
2023-03-07T14:30:38.107Z,99059.45
2023-03-07T14:33:07.285Z,99057.83
2023-03-07T14:35:40.537Z,99058.73
2023-03-07T14:38:18.144Z,99055.13
2023-03-07T14:41:09.690Z,99052.01
2023-03-07T14:43:56.953Z,99050.75
2023-03-07T14:46:59.831Z,99045.61
2023-03-07T14:49:43.553Z,99041.57
2023-03-07T14:52:21.470Z,99043.05
2023-03-07T14:54:57.289Z,99043.24
2023-03-07T14:57:37.580Z,99043.53
2023-03-07T15:00:15.205Z,99042.17
2023-03-07T15:03:11.029Z,99042.59
2023-03-07T15:05:50.817Z,99042.33
2023-03-07T15:08:24.534Z,99044.45
2023-03-07T15:11:07.944Z,99047.35
2023-03-07T15:13:38.938Z,99045.96
2023-03-07T15:16:11.186Z,99045.80
2023-03-07T15:18:42.718Z,99045.61
2023-03-07T15:21:18.370Z,99050.40
2023-03-07T15:23:57.397Z,99042.26
2023-03-07T15:26:26.986Z,99040.64
2023-03-07T15:29:00.819Z,99041.91
2023-03-07T15:31:32.057Z,99038.27
2023-03-07T15:34:25.874Z,99040.45
2023-03-07T15:36:54.846Z,99048.01
2023-03-07T15:39:34.823Z,99051.68
2023-03-07T15:42:05.985Z,99053.48
2023-03-07T15:44:36.621Z,99058.14
2023-03-07T15:47:12.997Z,99059.93
2023-03-07T15:49:42.790Z,99063.73
2023-03-07T15:52:32.498Z,99063.16
2023-03-07T15:55:08.776Z,99061.07
2023-03-07T15:57:39.407Z,99055.13
2023-03-07T16:00:16.692Z,99054.04
2023-03-07T16:02:48.111Z,99057.88
2023-03-07T16:05:23.310Z,99059.84
2023-03-07T16:07:58.228Z,99059.44
2023-03-07T16:10:29.219Z,99061.13
2023-03-07T16:12:59.979Z,99063.48
2023-03-07T16:15:29.619Z,99064.67
2023-03-07T16:18:00.341Z,99062.73
2023-03-07T16:20:29.296Z,99071.96
2023-03-07T16:22:59.335Z,99070.58
2023-03-07T16:25:28.296Z,99069.61
2023-03-07T16:27:58.631Z,99078.55
2023-03-07T16:30:28.752Z,99075.02
2023-03-07T16:32:57.568Z,99072.17
2023-03-07T16:35:27.442Z,99059.75
2023-03-07T16:37:56.167Z,99059.06
2023-03-07T16:40:26.551Z,99054.95
2023-03-07T16:43:25.082Z,99058.56
2023-03-07T16:45:55.327Z,99058.95
2023-03-07T16:48:24.200Z,99055.98
2023-03-07T16:50:52.703Z,99056.50
2023-03-07T16:53:23.006Z,99054.57
2023-03-07T16:55:52.161Z,99054.58
2023-03-07T16:58:32.376Z,99046.27
2023-03-07T17:01:00.970Z,99030.54
2023-03-07T17:03:30.883Z,99014.95
2023-03-07T17:06:00.685Z,98998.61
2023-03-07T17:08:30.468Z,98983.55
2023-03-07T17:11:01.034Z,98966.29
2023-03-07T17:13:30.836Z,98938.29
2023-03-07T17:15:59.461Z,98912.63
2023-03-07T17:18:33.935Z,98901.39
2023-03-07T17:21:05.324Z,98872.09
2023-03-07T17:23:33.839Z,98849.00
2023-03-07T17:26:02.285Z,98840.46
2023-03-07T17:28:31.045Z,98816.63
2023-03-07T17:31:00.219Z,98782.25
2023-03-07T17:33:28.643Z,98768.19
2023-03-07T17:35:58.367Z,98756.23
2023-03-07T17:38:27.094Z,98747.24
2023-03-07T17:40:56.554Z,98731.91
2023-03-07T17:43:26.151Z,98715.20
2023-03-07T17:45:54.636Z,98699.29
2023-03-07T17:48:23.792Z,98694.49
2023-03-07T17:50:55.641Z,98688.69
2023-03-07T17:53:26.357Z,98682.36
2023-03-07T17:55:54.747Z,98674.72
2023-03-07T17:58:23.642Z,98675.66
2023-03-07T18:00:52.260Z,98665.85
2023-03-07T18:03:20.993Z,98662.02
2023-03-07T18:05:49.766Z,98666.35
2023-03-07T18:08:18.805Z,98661.93
2023-03-07T18:10:47.846Z,98665.48
2023-03-07T18:13:16.916Z,98664.92
2023-03-07T18:15:46.757Z,98670.88
2023-03-07T18:18:15.196Z,98674.08
2023-03-07T18:20:43.605Z,98674.33
2023-03-07T18:23:12.280Z,98688.08
2023-03-07T18:25:41.883Z,98683.83
2023-03-07T18:28:12.620Z,98685.88
2023-03-07T18:30:41.227Z,98686.54
2023-03-07T18:33:10.038Z,98690.84
2023-03-07T18:35:39.087Z,98678.15
2023-03-07T18:38:07.611Z,98672.41
2023-03-07T18:40:41.849Z,98653.20
2023-03-07T18:43:10.638Z,98658.42
2023-03-07T18:45:43.553Z,98655.14
2023-03-07T18:48:12.633Z,98649.76
2023-03-07T18:50:41.418Z,98650.47
2023-03-07T18:53:09.867Z,98647.34
2023-03-07T18:55:38.349Z,98651.10
2023-03-07T18:58:07.687Z,98641.15
2023-03-07T19:00:37.523Z,98639.95
2023-03-07T19:03:06.144Z,98627.77
2023-03-07T19:05:42.708Z,98613.68
2023-03-07T19:08:11.201Z,98609.57
2023-03-07T19:10:39.801Z,98605.62
2023-03-07T19:13:08.352Z,98598.78
2023-03-07T19:15:38.052Z,98598.48
2023-03-07T19:18:06.603Z,98587.28
2023-03-07T19:20:40.813Z,98583.20
2023-03-07T19:23:09.277Z,98586.01
2023-03-07T19:25:38.864Z,98591.73
2023-03-07T19:28:07.342Z,98582.83
2023-03-07T19:30:37.323Z,98580.16
2023-03-07T19:33:08.399Z,98577.11
2023-03-07T19:35:37.685Z,98574.96
2023-03-07T19:38:07.280Z,98574.59
2023-03-07T19:40:36.740Z,98572.09
2023-03-07T19:43:05.351Z,98570.41
2023-03-07T19:45:34.598Z,98569.48
2023-03-07T19:48:07.775Z,98570.61
2023-03-07T19:50:41.272Z,98568.50
2023-03-07T19:53:09.779Z,98567.86
2023-03-07T19:55:40.551Z,98569.22
2023-03-07T19:58:10.517Z,98570.77
2023-03-07T20:00:40.049Z,98572.44
2023-03-07T20:03:14.677Z,98576.91
2023-03-07T20:05:45.439Z,98576.27
2023-03-07T20:08:20.913Z,98579.02
2023-03-07T20:11:00.804Z,98584.20
2023-03-07T20:13:40.512Z,98587.42
2023-03-07T20:16:10.581Z,98591.20
2023-03-07T20:18:39.287Z,98592.40
2023-03-07T20:21:11.207Z,98596.70
2023-03-07T20:23:45.641Z,98601.85
2023-03-07T20:26:18.639Z,98601.89
2023-03-07T20:28:47.878Z,98643.08
2023-03-07T20:31:16.678Z,98677.11
2023-03-07T20:33:47.108Z,98684.34
2023-03-07T20:36:20.459Z,98685.66
2023-03-07T20:38:52.736Z,98688.15
2023-03-07T20:41:23.115Z,98686.66
2023-03-07T20:43:52.028Z,98700.73
2023-03-07T20:46:21.736Z,98721.43
2023-03-07T20:48:55.454Z,98726.25
2023-03-07T20:51:27.565Z,98723.57
2023-03-07T20:53:59.118Z,98721.30
2023-03-07T20:56:29.107Z,98714.34
2023-03-07T20:58:58.443Z,98708.84
2023-03-07T21:01:28.953Z,98697.94
2023-03-07T21:04:06.512Z,98691.42
2023-03-07T21:06:35.667Z,98681.77
2023-03-07T21:09:08.332Z,98668.84
2023-03-07T21:11:38.553Z,98662.82
2023-03-07T21:14:08.946Z,98647.08
2023-03-07T21:16:39.207Z,98626.98
2023-03-07T21:19:07.947Z,98609.04
2023-03-07T21:21:38.306Z,98597.75
2023-03-07T21:24:07.913Z,98580.39
2023-03-07T21:26:36.955Z,98545.71
2023-03-07T21:29:05.790Z,98532.08
2023-03-07T21:31:36.640Z,98519.61
2023-03-07T21:34:08.288Z,98507.43
2023-03-07T21:36:36.875Z,98496.34
2023-03-07T21:39:10.226Z,98487.16
2023-03-07T21:41:38.863Z,98483.72
2023-03-07T21:44:07.828Z,98471.27
2023-03-07T21:46:36.366Z,98463.16
2023-03-07T21:49:04.690Z,98458.02
2023-03-07T21:51:33.961Z,98446.12
2023-03-07T21:54:02.504Z,98438.90
2023-03-07T21:56:31.243Z,98431.52
2023-03-07T21:59:00.074Z,98427.30
2023-03-07T22:01:29.501Z,98418.84
2023-03-07T22:03:59.470Z,98408.45
2023-03-07T22:06:28.493Z,98398.58
2023-03-07T22:08:58.384Z,98392.85
2023-03-07T22:11:27.321Z,98380.89
2023-03-07T22:13:57.079Z,98370.51
2023-03-07T22:16:29.886Z,98363.47
2023-03-07T22:18:58.482Z,98350.09
2023-03-07T22:21:28.087Z,98339.13
2023-03-07T22:24:01.048Z,98333.38
2023-03-07T22:26:32.219Z,98323.29
2023-03-07T22:29:00.743Z,98316.09
2023-03-07T22:31:29.814Z,98306.79
2023-03-07T22:34:00.276Z,98302.70
2023-03-07T22:36:28.797Z,98300.94
2023-03-07T22:38:57.460Z,98287.84
2023-03-07T22:41:27.105Z,98291.38
2023-03-07T22:43:55.809Z,98287.65
2023-03-07T22:46:24.389Z,98288.70
2023-03-07T22:48:54.657Z,98288.73
2023-03-07T22:51:24.266Z,98288.98
2023-03-07T22:53:54.080Z,98293.44
2023-03-07T22:56:25.422Z,98292.08
2023-03-07T22:58:59.033Z,98289.01
2023-03-07T23:01:28.911Z,98296.10
2023-03-07T23:03:58.760Z,98289.23
2023-03-07T23:06:29.717Z,98293.42
2023-03-07T23:08:59.901Z,98290.47
2023-03-07T23:11:32.803Z,98295.75
2023-03-07T23:14:02.608Z,98303.30
2023-03-07T23:16:32.124Z,98308.18
2023-03-07T23:19:03.788Z,98310.98
2023-03-07T23:21:33.373Z,98308.74
2023-03-07T23:24:05.337Z,98311.25
2023-03-07T23:26:37.199Z,98310.23
2023-03-07T23:29:06.981Z,98302.33
2023-03-07T23:31:38.301Z,98300.34
2023-03-07T23:34:08.887Z,98302.91
2023-03-07T23:36:43.412Z,98305.73
2023-03-07T23:39:12.919Z,98304.33
2023-03-07T23:41:41.402Z,98303.46
2023-03-07T23:44:11.677Z,98296.46
2023-03-07T23:46:40.854Z,98295.49
2023-03-07T23:49:11.392Z,98292.59
2023-03-07T23:51:40.219Z,98288.81
2023-03-07T23:54:09.442Z,98290.53
2023-03-07T23:56:38.168Z,98293.38
2023-03-07T23:59:06.806Z,98289.10
